Sarah Dann — WDA8664 — position and weather

sailwx.info

Track history (hours):
 
Tides and Currents Weather Stations Pressure Air Temp Water Temp Dewpoint Dewpoint Depression Visibility Wind Speed Wind Dir Waves Ship Positions

Sarah Dann

Owner: SARAH DANN INC., TAMPA, FL. More information available from US FCC via Universal Licensing System and Coast Guard Vessel Documentation Center.

Last reported at 2017-Dec-16 07:00 UTC. Time now 2017-Dec-16 07:08 UTC.
Position N 39°23' W 075°28'.

Length 30 m; draft 4.6 m.

Type: Tug. MMSI: 303029000.

Date/timePositionNaut miles runAvg speedWind from/ knotsBaromVisibWave heightAir tempDewpointWater temp
2017-Dec-16 07:00N 39°23' W 075°28'1 1.8
2017-Dec-16 06:30N 39°22' W 075°28'1 1.8
2017-Dec-16 06:00N 39°21' W 075°27'1 2.0
2017-Dec-16 05:30N 39°20' W 075°26'1 2.4
2017-Dec-16 05:00N 39°20' W 075°25'1 2.5
2017-Dec-16 04:30N 39°19' W 075°24'2 4.1
2017-Dec-16 04:00N 39°20' W 075°26'2 4.2
2017-Dec-16 03:30N 39°22' W 075°27'2 3.7
2017-Dec-16 03:00N 39°23' W 075°29'2 3.6
2017-Dec-16 02:30N 39°25' W 075°31'1 3.0
2017-Dec-16 02:00N 39°26' W 075°32'1 2.4
2017-Dec-16 01:30N 39°27' W 075°33'1 2.6
2017-Dec-16 01:00N 39°26' W 075°32'3 5.2
2017-Dec-16 00:30N 39°24' W 075°30'3 5.1
2017-Dec-16 00:00N 39°22' W 075°27'3 5.2
2017-Dec-15 23:30N 39°20' W 075°25'3 5.8
2017-Dec-15 23:00N 39°18' W 075°22'3 6.5
2017-Dec-15 22:30N 39°15' W 075°20'3 5.8
2017-Dec-15 22:00N 39°13' W 075°17'3 5.3
2017-Dec-15 21:31N 39°11' W 075°16'3 5.2
2017-Dec-15 21:00N 39°08' W 075°14'2 4.9
2017-Dec-15 20:30N 39°06' W 075°12'2 4.8
2017-Dec-15 20:00N 39°04' W 075°11'2 4.7
2017-Dec-15 19:30N 39°02' W 075°10'2 4.4
2017-Dec-15 19:00N 39°00' W 075°09'2 4.5
2017-Dec-15 18:30N 38°58' W 075°07'2 4.6
2017-Dec-15 18:00N 38°56' W 075°06'2 4.4
2017-Dec-15 17:30N 38°54' W 075°05'2 4.1
2017-Dec-15 17:00N 38°52' W 075°04'2 3.7
2017-Dec-15 16:23N 38°50' W 075°03'56 6.4
2017-Dec-15 07:36N 39°30' W 074°12'2 7.7
2017-Dec-15 07:24N 39°31' W 074°11'4 7.7
2017-Dec-15 06:54N 39°34' W 074°08'3 7.7
2017-Dec-15 06:28N 39°37' W 074°06'4 7.7
2017-Dec-15 05:58N 39°40' W 074°03'5 7.7
2017-Dec-15 05:17N 39°45' W 073°59'2 7.5
2017-Dec-15 04:59N 39°47' W 073°58'32 7.7
2017-Dec-15 00:50N 40°19' W 073°54'3 7.7
2017-Dec-15 00:26N 40°22' W 073°54'19 3.2
2017-Dec-14 18:31N 40°40' W 074°00'0 0.0
2017-Dec-14 17:58N 40°40' W 074°00'0 0.0
2017-Dec-14 17:28N 40°40' W 074°00'0 0.1
2017-Dec-14 17:01N 40°40' W 074°00'0 0.0
2017-Dec-14 16:28N 40°40' W 074°00'0 0.0
2017-Dec-14 16:01N 40°40' W 074°00'0 0.0
2017-Dec-14 14:58N 40°40' W 074°00'0 0.0
2017-Dec-14 14:27N 40°40' W 074°00'0 0.0
2017-Dec-14 13:58N 40°40' W 074°00'0 0.0
2017-Dec-14 13:28N 40°40' W 074°00'0 0.1
2017-Dec-14 13:00N 40°40' W 074°00'0 0.1
2017-Dec-14 12:28N 40°40' W 074°00'0 0.0
2017-Dec-14 11:58N 40°40' W 074°00'0 0.0
2017-Dec-14 11:28N 40°40' W 074°00'0 0.0
2017-Dec-14 10:58N 40°40' W 074°00'0 0.0
2017-Dec-14 10:28N 40°40' W 074°00'0 0.0
2017-Dec-14 09:58N 40°40' W 074°00'0 0.0
2017-Dec-14 09:28N 40°40' W 074°00'0 0.0
2017-Dec-14 08:58N 40°40' W 074°00'0 0.0
2017-Dec-14 08:28N 40°40' W 074°00'0 0.0
2017-Dec-14 07:58N 40°40' W 074°00'0 0.0
2017-Dec-14 07:28N 40°40' W 074°00'0 0.0
2017-Dec-14 06:58N 40°40' W 074°00'0 0.0
2017-Dec-14 06:28N 40°40' W 074°00'0 0.0
2017-Dec-14 05:58N 40°40' W 074°00'0 0.0
2017-Dec-14 05:28N 40°40' W 074°00'0 0.0
2017-Dec-14 04:58N 40°40' W 074°00'0 0.0
2017-Dec-14 04:28N 40°40' W 074°00'0 0.0
2017-Dec-14 03:58N 40°40' W 074°00'0 0.0
2017-Dec-14 03:28N 40°40' W 074°00'0 0.0
2017-Dec-14 02:58N 40°40' W 074°00'0 0.0
2017-Dec-14 02:28N 40°40' W 074°00'0 0.0
2017-Dec-14 01:58N 40°40' W 074°00'0 0.0
2017-Dec-14 01:28N 40°40' W 074°00'0 0.0
2017-Dec-14 00:58N 40°40' W 074°00'0 0.0
2017-Dec-14 00:28N 40°40' W 074°00'0 0.0
2017-Dec-13 23:58N 40°40' W 074°00'0 0.0
2017-Dec-13 23:28N 40°40' W 074°00'0 0.0
2017-Dec-13 22:58N 40°40' W 074°00'0 0.0
2017-Dec-13 22:28N 40°40' W 074°00'0 0.0
2017-Dec-13 21:58N 40°40' W 074°00'0 0.0
2017-Dec-13 21:28N 40°40' W 074°00'0 0.0
2017-Dec-13 20:58N 40°40' W 074°00'0 0.0
2017-Dec-13 20:28N 40°40' W 074°00'0 0.0
2017-Dec-13 19:59N 40°40' W 074°00'0 0.2
2017-Dec-13 19:28N 40°40' W 074°00'0 0.0
2017-Dec-13 18:58N 40°40' W 074°00'0 0.0
2017-Dec-13 18:28N 40°40' W 074°00'0 0.0
2017-Dec-13 17:58N 40°40' W 074°00'0 0.0
2017-Dec-13 17:28N 40°40' W 074°00'0 0.0
2017-Dec-13 16:58N 40°40' W 074°00'0 0.2
2017-Dec-13 16:30N 40°40' W 074°00'0 0.2
2017-Dec-13 16:00N 40°40' W 074°00'0 0.0
2017-Dec-13 15:30N 40°40' W 074°00'0 0.0
2017-Dec-13 15:00N 40°40' W 074°00'0 0.0
2017-Dec-13 14:30N 40°40' W 074°00'0 0.0
2017-Dec-13 14:00N 40°40' W 074°00'0 0.0
2017-Dec-13 13:30N 40°40' W 074°00'0 0.0
2017-Dec-13 13:00N 40°40' W 074°00'0 0.0
2017-Dec-13 12:30N 40°40' W 074°00'0 0.0
2017-Dec-13 12:00N 40°40' W 074°00'0 0.0
2017-Dec-13 11:30N 40°40' W 074°00'0 0.0
2017-Dec-13 11:00N 40°40' W 074°00'0 0.0
2017-Dec-13 10:30N 40°40' W 074°00'0 0.0
2017-Dec-13 10:00N 40°40' W 074°00'0 0.0
2017-Dec-13 09:30N 40°40' W 074°00'0 0.0
2017-Dec-13 09:00N 40°40' W 074°00'0 0.0
2017-Dec-13 08:30N 40°40' W 074°00'0 0.0
2017-Dec-13 08:00N 40°40' W 074°00'0 0.0
2017-Dec-13 07:30N 40°40' W 074°00'0 0.0
2017-Dec-13 07:00N 40°40' W 074°00'0 0.0
2017-Dec-13 06:30N 40°40' W 074°00'0 0.0
2017-Dec-13 06:00N 40°40' W 074°00'0 0.0
2017-Dec-13 05:30N 40°40' W 074°00'0 0.0
2017-Dec-13 05:00N 40°40' W 074°00'0 0.0
2017-Dec-13 04:30N 40°40' W 074°00'0 0.0
2017-Dec-13 04:00N 40°40' W 074°00'0 0.0
2017-Dec-13 03:30N 40°40' W 074°00'0 0.0
2017-Dec-13 03:00N 40°40' W 074°00'0 0.0
2017-Dec-13 02:30N 40°40' W 074°00'0 0.0
2017-Dec-13 02:00N 40°40' W 074°00'0 0.0
2017-Dec-13 01:30N 40°40' W 074°00'0 0.0
2017-Dec-13 01:00N 40°40' W 074°00'0 0.0
2017-Dec-13 00:30N 40°40' W 074°00'0 0.0
2017-Dec-13 00:00N 40°40' W 074°00'0 0.0
2017-Dec-12 23:30N 40°40' W 074°00'0 0.2
2017-Dec-12 23:00N 40°40' W 074°00'0 0.0
2017-Dec-12 22:30N 40°40' W 074°00'0 0.0
2017-Dec-12 22:00N 40°40' W 074°00'0 0.0
2017-Dec-12 21:30N 40°40' W 074°00'0 0.0
2017-Dec-12 21:00N 40°40' W 074°00'0 0.0
2017-Dec-12 20:30N 40°40' W 074°00'0 0.0
2017-Dec-12 20:00N 40°40' W 074°00'0 0.0
2017-Dec-12 19:30N 40°40' W 074°00'0 0.0
2017-Dec-12 19:00N 40°40' W 074°00'0 0.0
2017-Dec-12 18:30N 40°40' W 074°00'0 0.0
2017-Dec-12 18:00N 40°40' W 074°00'0 0.0
2017-Dec-12 17:30N 40°40' W 074°00'0 0.0
2017-Dec-12 17:00N 40°40' W 074°00'0 0.0
2017-Dec-12 16:30N 40°40' W 074°00'0 0.2
2017-Dec-12 15:58N 40°40' W 074°00'0 0.0
2017-Dec-12 15:28N 40°40' W 074°00'0 0.0
2017-Dec-12 14:58N 40°40' W 074°00'0 0.0
2017-Dec-12 14:28N 40°40' W 074°00'0 0.0
2017-Dec-12 13:58N 40°40' W 074°00'0 0.2
2017-Dec-12 13:29N 40°40' W 074°00'0 0.2
2017-Dec-12 13:00N 40°40' W 074°00'0 0.0
2017-Dec-12 12:30N 40°40' W 074°00'0 0.0
2017-Dec-12 12:00N 40°40' W 074°00'0 0.0
2017-Dec-12 11:30N 40°40' W 074°00'0 0.0
2017-Dec-12 11:00N 40°40' W 074°00'0 0.0
2017-Dec-12 10:30N 40°40' W 074°00'0 0.0
2017-Dec-12 10:00N 40°40' W 074°00'0 0.0
2017-Dec-12 09:30N 40°40' W 074°00'0 0.0
2017-Dec-12 09:00N 40°40' W 074°00'0 0.0
2017-Dec-12 08:30N 40°40' W 074°00'0 0.0
2017-Dec-12 08:00N 40°40' W 074°00'0 0.0
2017-Dec-12 07:30N 40°40' W 074°00'0 0.0
2017-Dec-12 07:00N 40°40' W 074°00'0 0.0
2017-Dec-12 06:30N 40°40' W 074°00'0 0.0
2017-Dec-12 06:00N 40°40' W 074°00'0 0.0
2017-Dec-12 05:31N 40°40' W 074°00'0 0.0
2017-Dec-12 05:00N 40°40' W 074°00'0 0.0
2017-Dec-12 04:30N 40°40' W 074°00'0 0.0
2017-Dec-12 04:00N 40°40' W 074°00'0 0.0
2017-Dec-12 03:30N 40°40' W 074°00'0 0.0
2017-Dec-12 03:00N 40°40' W 074°00'0 0.0
2017-Dec-12 02:30N 40°40' W 074°00'0 0.0
2017-Dec-12 02:00N 40°40' W 074°00'0 0.0
2017-Dec-12 01:30N 40°40' W 074°00'0 0.0
2017-Dec-12 01:00N 40°40' W 074°00'0 0.0
2017-Dec-12 00:30N 40°40' W 074°00'0 0.0
2017-Dec-12 00:00N 40°40' W 074°00'0 0.0
2017-Dec-11 23:30N 40°40' W 074°00'0 0.0
2017-Dec-11 23:00N 40°40' W 074°00'0 0.0
2017-Dec-11 22:30N 40°40' W 074°00'0 0.1
2017-Dec-11 22:00N 40°40' W 074°00'0 0.1
2017-Dec-11 21:30N 40°40' W 074°00'1 2.7
2017-Dec-11 21:00N 40°39' W 074°02'3 5.7
2017-Dec-11 20:30N 40°36' W 074°02'2 4.3
2017-Dec-11 20:00N 40°34' W 074°01'0 0.8
2017-Dec-11 19:30N 40°34' W 074°02'2 3.7
2017-Dec-11 19:00N 40°32' W 074°01'2 4.1
2017-Dec-11 18:29N 40°31' W 073°59'2 4.8
2017-Dec-11 18:00N 40°30' W 073°56'2 4.4
2017-Dec-11 17:30N 40°29' W 073°54'2 4.2
2017-Dec-11 16:59N 40°26' W 073°54'3 5.6
2017-Dec-11 16:28N 40°23' W 073°54'3 5.9
2017-Dec-11 16:00N 40°21' W 073°54'29 5.7
2017-Dec-11 10:55N 39°52' W 073°58'5 5.3
2017-Dec-11 09:57N 39°47' W 073°58'2 5.6
2017-Dec-11 09:30N 39°45' W 073°59'3 5.8
2017-Dec-11 09:00N 39°42' W 074°01'3 5.8
2017-Dec-11 08:29N 39°40' W 074°03'3 5.8
2017-Dec-11 07:56N 39°37' W 074°06'3 5.9
2017-Dec-11 07:30N 39°35' W 074°07'4 6.0
2017-Dec-11 06:45N 39°31' W 074°10'14 6.0
2017-Dec-11 04:22N 39°19' W 074°20'43 4.9
2017-Dec-10 19:35N 38°52' W 075°04'1 4.8
2017-Dec-10 19:18N 38°54' W 075°05'1 4.5
2017-Dec-10 19:00N 38°55' W 075°05'2 3.8
2017-Dec-10 18:30N 38°57' W 075°06'2 4.0
2017-Dec-10 18:00N 38°58' W 075°07'2 3.7
2017-Dec-10 17:30N 38°60' W 075°08'2 3.6
2017-Dec-10 17:00N 39°02' W 075°09'2 3.7
2017-Dec-10 16:30N 39°03' W 075°10'1 2.5
2017-Dec-10 16:00N 39°04' W 075°11'0 0.8
2017-Dec-10 15:30N 39°05' W 075°11'2 4.8
2017-Dec-10 15:01N 39°07' W 075°13'2 4.9
2017-Dec-10 14:30N 39°09' W 075°14'3 5.0
2017-Dec-10 14:00N 39°11' W 075°16'2 5.1
2017-Dec-10 13:31N 39°13' W 075°18'3 6.2
2017-Dec-10 13:00N 39°16' W 075°20'3 5.8
2017-Dec-10 12:30N 39°18' W 075°23'1 1.4
2017-Dec-10 12:01N 39°18' W 075°24'0 0.8
2017-Dec-10 11:30N 39°18' W 075°23'1 1.0
2017-Dec-10 11:01N 39°17' W 075°23'0 0.4
2017-Dec-10 10:30N 39°17' W 075°23'1 2.3
2017-Dec-10 10:01N 39°18' W 075°24'1 1.9
2017-Dec-10 09:30N 39°19' W 075°24'1 1.4
2017-Dec-10 09:00N 39°20' W 075°25'0 0.7
2017-Dec-10 08:30N 39°20' W 075°25'0 0.7
2017-Dec-10 08:00N 39°20' W 075°26'1 1.4
2017-Dec-10 07:30N 39°20' W 075°25'1 1.8
2017-Dec-10 07:00N 39°19' W 075°24'1 3.0
2017-Dec-10 06:30N 39°18' W 075°23'1 2.2
2017-Dec-10 06:00N 39°17' W 075°22'1 1.1
2017-Dec-10 05:30N 39°17' W 075°23'1 1.7
2017-Dec-10 05:01N 39°18' W 075°23'1 2.1
2017-Dec-10 04:30N 39°19' W 075°24'1 1.2
2017-Dec-10 04:00N 39°19' W 075°25'0 0.9
2017-Dec-10 03:30N 39°19' W 075°24'0 0.4
2017-Dec-10 03:00N 39°19' W 075°24'0 0.1
2017-Dec-10 02:30N 39°19' W 075°24'0 0.3
2017-Dec-10 02:00N 39°19' W 075°24'0 0.6
2017-Dec-10 01:30N 39°18' W 075°24'0 0.3
2017-Dec-10 01:00N 39°18' W 075°24'0 0.5
2017-Dec-10 00:30N 39°19' W 075°24'0 0.3
2017-Dec-10 00:00N 39°19' W 075°24'1 1.5
2017-Dec-09 23:30N 39°19' W 075°25'3 5.3
2017-Dec-09 23:00N 39°21' W 075°27'3 5.7
2017-Dec-09 22:30N 39°24' W 075°29'3 5.6
2017-Dec-09 22:00N 39°26' W 075°32'2 4.8
2017-Dec-09 21:30N 39°27' W 075°34'2 4.4
2017-Dec-09 21:00N 39°30' W 075°34'2 3.9
2017-Dec-09 20:30N 39°32' W 075°33'2 4.0
2017-Dec-09 20:00N 39°33' W 075°32'1 1.4
2017-Dec-09 19:29N 39°34' W 075°31'0 0.0
2017-Dec-09 18:59N 39°34' W 075°31'0 0.0
2017-Dec-09 18:29N 39°34' W 075°31'0 0.0
2017-Dec-09 17:59N 39°34' W 075°31'0 0.0
2017-Dec-09 17:29N 39°34' W 075°31'0 0.0
2017-Dec-09 16:59N 39°34' W 075°31'0 0.0
2017-Dec-09 16:29N 39°34' W 075°31'0 0.0
2017-Dec-09 15:59N 39°34' W 075°31'0 0.0
2017-Dec-09 15:29N 39°34' W 075°31'0 0.0
2017-Dec-09 14:59N 39°34' W 075°31'0 0.0
2017-Dec-09 14:29N 39°34' W 075°31'0 0.0
2017-Dec-09 13:59N 39°34' W 075°31'0 0.0
2017-Dec-09 13:29N 39°34' W 075°31'0 0.0
2017-Dec-09 12:59N 39°34' W 075°31'0 0.0
2017-Dec-09 12:29N 39°34' W 075°31'0 0.0
2017-Dec-09 11:59N 39°34' W 075°31'0 0.0
2017-Dec-09 11:29N 39°34' W 075°31'0 0.0
2017-Dec-09 10:59N 39°34' W 075°31'0 0.0
2017-Dec-09 10:29N 39°34' W 075°31'0 0.0
2017-Dec-09 09:59N 39°34' W 075°31'0 0.6
2017-Dec-09 09:31N 39°34' W 075°31'2 3.3
2017-Dec-09 08:58N 39°35' W 075°29'0 0.0
2017-Dec-09 08:28N 39°35' W 075°29'0 0.1
2017-Dec-09 07:58N 39°35' W 075°29'0 0.0
2017-Dec-09 07:28N 39°35' W 075°29'0 0.0
2017-Dec-09 06:58N 39°35' W 075°29'0 0.0
2017-Dec-09 06:28N 39°35' W 075°29'0 0.0
2017-Dec-09 05:58N 39°35' W 075°29'0 0.0
2017-Dec-09 05:28N 39°35' W 075°29'0 0.0
2017-Dec-09 04:58N 39°35' W 075°29'0 0.0
2017-Dec-09 04:28N 39°35' W 075°29'0 0.0
2017-Dec-09 03:58N 39°35' W 075°29'0 0.0
2017-Dec-09 03:28N 39°35' W 075°29'0 0.0
2017-Dec-09 02:58N 39°35' W 075°29'0 0.0
2017-Dec-09 02:28N 39°35' W 075°29'0 0.0
2017-Dec-09 02:01N 39°35' W 075°29'0 0.0
2017-Dec-09 01:31N 39°35' W 075°29'0 0.0
2017-Dec-09 01:00N 39°35' W 075°29'0 0.0
2017-Dec-09 00:30N 39°35' W 075°29'0 0.0
2017-Dec-09 00:00N 39°35' W 075°29'0 0.0
2017-Dec-08 23:31N 39°35' W 075°29'0 0.0
2017-Dec-08 23:00N 39°35' W 075°29'0 0.0
2017-Dec-08 22:21N 39°35' W 075°29'0 0.0
2017-Dec-08 22:00N 39°35' W 075°29'0 0.8
2017-Dec-08 21:30N 39°34' W 075°29'2 4.6
2017-Dec-08 21:00N 39°33' W 075°32'3 5.8
2017-Dec-08 20:30N 39°30' W 075°33'0 0.3
2017-Dec-08 20:00N 39°31' W 075°33'1 2.6
2017-Dec-08 19:30N 39°29' W 075°34'3 5.7
2017-Dec-08 19:00N 39°27' W 075°33'5 9.4
2017-Dec-08 18:30N 39°23' W 075°29'4 8.8
2017-Dec-08 18:00N 39°20' W 075°25'2 4.6
2017-Dec-08 17:30N 39°18' W 075°23'5 9.0
2017-Dec-08 17:00N 39°15' W 075°19'4 8.0
2017-Dec-08 16:30N 39°11' W 075°16'4 7.9
2017-Dec-08 16:00N 39°08' W 075°14'4 7.5
2017-Dec-08 15:30N 39°05' W 075°11'4 7.4
2017-Dec-08 15:00N 39°02' W 075°09'4 7.6
2017-Dec-08 14:30N 38°58' W 075°07'4 7.2
2017-Dec-08 13:59N 38°55' W 075°05'6 6.5
2017-Dec-08 13:01N 38°49' W 075°02'0 6.6
2017-Dec-08 12:58N 38°49' W 075°02'60 5.2
2017-Dec-08 01:18N 39°33' W 074°09'2 5.5
2017-Dec-08 00:52N 39°35' W 074°07'3 5.5
2017-Dec-08 00:23N 39°37' W 074°06'2 5.6
2017-Dec-08 00:00N 39°39' W 074°04'5 5.7
2017-Dec-07 23:12N 39°43' W 074°01'1 5.7
2017-Dec-07 23:00N 39°44' W 074°00'3 5.4
2017-Dec-07 22:22N 39°47' W 073°58'2 5.7
2017-Dec-07 22:00N 39°49' W 073°58'4 5.7
2017-Dec-07 21:18N 39°53' W 073°57'24 5.8
2017-Dec-07 17:05N 40°17' W 073°54'2 5.8
2017-Dec-07 16:45N 40°19' W 073°54'1 5.6
2017-Dec-07 16:29N 40°21' W 073°54'3 5.7
2017-Dec-07 15:58N 40°24' W 073°54'3 5.7
2017-Dec-07 15:30N 40°26' W 073°54'3 5.0
2017-Dec-07 14:58N 40°29' W 073°54'3 6.0
2017-Dec-07 14:30N 40°30' W 073°58'3 5.5
2017-Dec-07 14:00N 40°31' W 074°01'3 5.4
2017-Dec-07 13:30N 40°34' W 074°02'3 5.3
2017-Dec-07 13:00N 40°36' W 074°03'1 1.4
2017-Dec-07 12:30N 40°37' W 074°03'3 5.2
2017-Dec-07 12:01N 40°39' W 074°06'3 5.2
2017-Dec-07 11:30N 40°39' W 074°09'2 3.1
2017-Dec-07 10:57N 40°38' W 074°12'0 0.0
2017-Dec-07 10:27N 40°38' W 074°12'0 0.0
2017-Dec-07 10:00N 40°38' W 074°12'0 0.1
2017-Dec-07 09:30N 40°38' W 074°12'0 0.0
2017-Dec-07 09:00N 40°38' W 074°12'0 0.0
2017-Dec-07 08:30N 40°38' W 074°12'0 0.0
2017-Dec-07 07:57N 40°38' W 074°12'0 0.0
2017-Dec-07 07:27N 40°38' W 074°12'0 0.0
2017-Dec-07 06:57N 40°38' W 074°12'0 0.0
2017-Dec-07 06:30N 40°38' W 074°12'0 0.0
2017-Dec-07 05:57N 40°38' W 074°12'0 0.0
2017-Dec-07 05:30N 40°38' W 074°12'0 0.0
2017-Dec-07 05:00N 40°38' W 074°12'0 0.0
2017-Dec-07 04:30N 40°38' W 074°12'0 0.0
2017-Dec-07 04:00N 40°38' W 074°12'0 0.0
2017-Dec-07 03:30N 40°38' W 074°12'0 0.0
2017-Dec-07 03:00N 40°38' W 074°12'0 0.0
2017-Dec-07 02:30N 40°38' W 074°12'0 0.0
2017-Dec-07 02:00N 40°38' W 074°12'0 0.0
2017-Dec-07 01:30N 40°38' W 074°12'0 0.0
2017-Dec-07 01:00N 40°38' W 074°12'0 0.0
2017-Dec-07 00:24N 40°38' W 074°12'0 0.0
2017-Dec-06 23:56N 40°38' W 074°12'0 0.0
2017-Dec-06 23:18N 40°38' W 074°12'0 0.0
2017-Dec-06 22:48N 40°38' W 074°12'0 0.0
2017-Dec-06 22:27N 40°38' W 074°12'0 0.0
2017-Dec-06 21:51N 40°38' W 074°12'0 0.0
2017-Dec-06 21:27N 40°38' W 074°12'0 0.0
2017-Dec-06 21:00N 40°38' W 074°12'  
Track history (hours):
 
Tides and Currents Weather Stations Pressure Air Temp Water Temp Dewpoint Dewpoint Depression Visibility Wind Speed Wind Dir Waves Ship Positions

Sarah Dann

Owner: SARAH DANN INC., TAMPA, FL. More information available from US FCC via Universal Licensing System and Coast Guard Vessel Documentation Center.

Last reported at 2017-Dec-16 07:00 UTC. Time now 2017-Dec-16 07:08 UTC.
Position N 39°23' W 075°28'.

Length 30 m; draft 4.6 m.

Type: Tug. MMSI: 303029000.

Date/timePositionNaut miles runAvg speedWind from/ knotsBaromVisibWave heightAir tempDewpointWater temp
2017-Dec-16 07:00N 39°23' W 075°28'1 1.8
2017-Dec-16 06:30N 39°22' W 075°28'1 1.8
2017-Dec-16 06:00N 39°21' W 075°27'1 2.0
2017-Dec-16 05:30N 39°20' W 075°26'1 2.4
2017-Dec-16 05:00N 39°20' W 075°25'1 2.5
2017-Dec-16 04:30N 39°19' W 075°24'2 4.1
2017-Dec-16 04:00N 39°20' W 075°26'2 4.2
2017-Dec-16 03:30N 39°22' W 075°27'2 3.7
2017-Dec-16 03:00N 39°23' W 075°29'2 3.6
2017-Dec-16 02:30N 39°25' W 075°31'1 3.0
2017-Dec-16 02:00N 39°26' W 075°32'1 2.4
2017-Dec-16 01:30N 39°27' W 075°33'1 2.6
2017-Dec-16 01:00N 39°26' W 075°32'3 5.2
2017-Dec-16 00:30N 39°24' W 075°30'3 5.1
2017-Dec-16 00:00N 39°22' W 075°27'3 5.2
2017-Dec-15 23:30N 39°20' W 075°25'3 5.8
2017-Dec-15 23:00N 39°18' W 075°22'3 6.5
2017-Dec-15 22:30N 39°15' W 075°20'3 5.8
2017-Dec-15 22:00N 39°13' W 075°17'3 5.3
2017-Dec-15 21:31N 39°11' W 075°16'3 5.2
2017-Dec-15 21:00N 39°08' W 075°14'2 4.9
2017-Dec-15 20:30N 39°06' W 075°12'2 4.8
2017-Dec-15 20:00N 39°04' W 075°11'2 4.7
2017-Dec-15 19:30N 39°02' W 075°10'2 4.4
2017-Dec-15 19:00N 39°00' W 075°09'2 4.5
2017-Dec-15 18:30N 38°58' W 075°07'2 4.6
2017-Dec-15 18:00N 38°56' W 075°06'2 4.4
2017-Dec-15 17:30N 38°54' W 075°05'2 4.1
2017-Dec-15 17:00N 38°52' W 075°04'2 3.7
2017-Dec-15 16:23N 38°50' W 075°03'56 6.4
2017-Dec-15 07:36N 39°30' W 074°12'2 7.7
2017-Dec-15 07:24N 39°31' W 074°11'4 7.7
2017-Dec-15 06:54N 39°34' W 074°08'3 7.7
2017-Dec-15 06:28N 39°37' W 074°06'4 7.7
2017-Dec-15 05:58N 39°40' W 074°03'5 7.7
2017-Dec-15 05:17N 39°45' W 073°59'2 7.5
2017-Dec-15 04:59N 39°47' W 073°58'32 7.7
2017-Dec-15 00:50N 40°19' W 073°54'3 7.7
2017-Dec-15 00:26N 40°22' W 073°54'19 3.2
2017-Dec-14 18:31N 40°40' W 074°00'0 0.0
2017-Dec-14 17:58N 40°40' W 074°00'0 0.0
2017-Dec-14 17:28N 40°40' W 074°00'0 0.1
2017-Dec-14 17:01N 40°40' W 074°00'0 0.0
2017-Dec-14 16:28N 40°40' W 074°00'0 0.0
2017-Dec-14 16:01N 40°40' W 074°00'0 0.0
2017-Dec-14 14:58N 40°40' W 074°00'0 0.0
2017-Dec-14 14:27N 40°40' W 074°00'0 0.0
2017-Dec-14 13:58N 40°40' W 074°00'0 0.0
2017-Dec-14 13:28N 40°40' W 074°00'0 0.1
2017-Dec-14 13:00N 40°40' W 074°00'0 0.1
2017-Dec-14 12:28N 40°40' W 074°00'0 0.0
2017-Dec-14 11:58N 40°40' W 074°00'0 0.0
2017-Dec-14 11:28N 40°40' W 074°00'0 0.0
2017-Dec-14 10:58N 40°40' W 074°00'0 0.0
2017-Dec-14 10:28N 40°40' W 074°00'0 0.0
2017-Dec-14 09:58N 40°40' W 074°00'0 0.0
2017-Dec-14 09:28N 40°40' W 074°00'0 0.0
2017-Dec-14 08:58N 40°40' W 074°00'0 0.0
2017-Dec-14 08:28N 40°40' W 074°00'0 0.0
2017-Dec-14 07:58N 40°40' W 074°00'0 0.0
2017-Dec-14 07:28N 40°40' W 074°00'0 0.0
2017-Dec-14 06:58N 40°40' W 074°00'0 0.0
2017-Dec-14 06:28N 40°40' W 074°00'0 0.0
2017-Dec-14 05:58N 40°40' W 074°00'0 0.0
2017-Dec-14 05:28N 40°40' W 074°00'0 0.0
2017-Dec-14 04:58N 40°40' W 074°00'0 0.0
2017-Dec-14 04:28N 40°40' W 074°00'0 0.0
2017-Dec-14 03:58N 40°40' W 074°00'0 0.0
2017-Dec-14 03:28N 40°40' W 074°00'0 0.0
2017-Dec-14 02:58N 40°40' W 074°00'0 0.0
2017-Dec-14 02:28N 40°40' W 074°00'0 0.0
2017-Dec-14 01:58N 40°40' W 074°00'0 0.0
2017-Dec-14 01:28N 40°40' W 074°00'0 0.0
2017-Dec-14 00:58N 40°40' W 074°00'0 0.0
2017-Dec-14 00:28N 40°40' W 074°00'0 0.0
2017-Dec-13 23:58N 40°40' W 074°00'0 0.0
2017-Dec-13 23:28N 40°40' W 074°00'0 0.0
2017-Dec-13 22:58N 40°40' W 074°00'0 0.0
2017-Dec-13 22:28N 40°40' W 074°00'0 0.0
2017-Dec-13 21:58N 40°40' W 074°00'0 0.0
2017-Dec-13 21:28N 40°40' W 074°00'0 0.0
2017-Dec-13 20:58N 40°40' W 074°00'0 0.0
2017-Dec-13 20:28N 40°40' W 074°00'0 0.0
2017-Dec-13 19:59N 40°40' W 074°00'0 0.2
2017-Dec-13 19:28N 40°40' W 074°00'0 0.0
2017-Dec-13 18:58N 40°40' W 074°00'0 0.0
2017-Dec-13 18:28N 40°40' W 074°00'0 0.0
2017-Dec-13 17:58N 40°40' W 074°00'0 0.0
2017-Dec-13 17:28N 40°40' W 074°00'0 0.0
2017-Dec-13 16:58N 40°40' W 074°00'0 0.2
2017-Dec-13 16:30N 40°40' W 074°00'0 0.2
2017-Dec-13 16:00N 40°40' W 074°00'0 0.0
2017-Dec-13 15:30N 40°40' W 074°00'0 0.0
2017-Dec-13 15:00N 40°40' W 074°00'0 0.0
2017-Dec-13 14:30N 40°40' W 074°00'0 0.0
2017-Dec-13 14:00N 40°40' W 074°00'0 0.0
2017-Dec-13 13:30N 40°40' W 074°00'0 0.0
2017-Dec-13 13:00N 40°40' W 074°00'0 0.0
2017-Dec-13 12:30N 40°40' W 074°00'0 0.0
2017-Dec-13 12:00N 40°40' W 074°00'0 0.0
2017-Dec-13 11:30N 40°40' W 074°00'0 0.0
2017-Dec-13 11:00N 40°40' W 074°00'0 0.0
2017-Dec-13 10:30N 40°40' W 074°00'0 0.0
2017-Dec-13 10:00N 40°40' W 074°00'0 0.0
2017-Dec-13 09:30N 40°40' W 074°00'0 0.0
2017-Dec-13 09:00N 40°40' W 074°00'0 0.0
2017-Dec-13 08:30N 40°40' W 074°00'0 0.0
2017-Dec-13 08:00N 40°40' W 074°00'0 0.0
2017-Dec-13 07:30N 40°40' W 074°00'0 0.0
2017-Dec-13 07:00N 40°40' W 074°00'0 0.0
2017-Dec-13 06:30N 40°40' W 074°00'0 0.0
2017-Dec-13 06:00N 40°40' W 074°00'0 0.0
2017-Dec-13 05:30N 40°40' W 074°00'0 0.0
2017-Dec-13 05:00N 40°40' W 074°00'0 0.0
2017-Dec-13 04:30N 40°40' W 074°00'0 0.0
2017-Dec-13 04:00N 40°40' W 074°00'0 0.0
2017-Dec-13 03:30N 40°40' W 074°00'0 0.0
2017-Dec-13 03:00N 40°40' W 074°00'0 0.0
2017-Dec-13 02:30N 40°40' W 074°00'0 0.0
2017-Dec-13 02:00N 40°40' W 074°00'0 0.0
2017-Dec-13 01:30N 40°40' W 074°00'0 0.0
2017-Dec-13 01:00N 40°40' W 074°00'0 0.0
2017-Dec-13 00:30N 40°40' W 074°00'0 0.0
2017-Dec-13 00:00N 40°40' W 074°00'0 0.0
2017-Dec-12 23:30N 40°40' W 074°00'0 0.2
2017-Dec-12 23:00N 40°40' W 074°00'0 0.0
2017-Dec-12 22:30N 40°40' W 074°00'0 0.0
2017-Dec-12 22:00N 40°40' W 074°00'0 0.0
2017-Dec-12 21:30N 40°40' W 074°00'0 0.0
2017-Dec-12 21:00N 40°40' W 074°00'0 0.0
2017-Dec-12 20:30N 40°40' W 074°00'0 0.0
2017-Dec-12 20:00N 40°40' W 074°00'0 0.0
2017-Dec-12 19:30N 40°40' W 074°00'0 0.0
2017-Dec-12 19:00N 40°40' W 074°00'0 0.0
2017-Dec-12 18:30N 40°40' W 074°00'0 0.0
2017-Dec-12 18:00N 40°40' W 074°00'0 0.0
2017-Dec-12 17:30N 40°40' W 074°00'0 0.0
2017-Dec-12 17:00N 40°40' W 074°00'0 0.0
2017-Dec-12 16:30N 40°40' W 074°00'0 0.2
2017-Dec-12 15:58N 40°40' W 074°00'0 0.0
2017-Dec-12 15:28N 40°40' W 074°00'0 0.0
2017-Dec-12 14:58N 40°40' W 074°00'0 0.0
2017-Dec-12 14:28N 40°40' W 074°00'0 0.0
2017-Dec-12 13:58N 40°40' W 074°00'0 0.2
2017-Dec-12 13:29N 40°40' W 074°00'0 0.2
2017-Dec-12 13:00N 40°40' W 074°00'0 0.0
2017-Dec-12 12:30N 40°40' W 074°00'0 0.0
2017-Dec-12 12:00N 40°40' W 074°00'0 0.0
2017-Dec-12 11:30N 40°40' W 074°00'0 0.0
2017-Dec-12 11:00N 40°40' W 074°00'0 0.0
2017-Dec-12 10:30N 40°40' W 074°00'0 0.0
2017-Dec-12 10:00N 40°40' W 074°00'0 0.0
2017-Dec-12 09:30N 40°40' W 074°00'0 0.0
2017-Dec-12 09:00N 40°40' W 074°00'0 0.0
2017-Dec-12 08:30N 40°40' W 074°00'0 0.0
2017-Dec-12 08:00N 40°40' W 074°00'0 0.0
2017-Dec-12 07:30N 40°40' W 074°00'0 0.0
2017-Dec-12 07:00N 40°40' W 074°00'0 0.0
2017-Dec-12 06:30N 40°40' W 074°00'0 0.0
2017-Dec-12 06:00N 40°40' W 074°00'0 0.0
2017-Dec-12 05:31N 40°40' W 074°00'0 0.0
2017-Dec-12 05:00N 40°40' W 074°00'0 0.0
2017-Dec-12 04:30N 40°40' W 074°00'0 0.0
2017-Dec-12 04:00N 40°40' W 074°00'0 0.0
2017-Dec-12 03:30N 40°40' W 074°00'0 0.0
2017-Dec-12 03:00N 40°40' W 074°00'0 0.0
2017-Dec-12 02:30N 40°40' W 074°00'0 0.0
2017-Dec-12 02:00N 40°40' W 074°00'0 0.0
2017-Dec-12 01:30N 40°40' W 074°00'0 0.0
2017-Dec-12 01:00N 40°40' W 074°00'0 0.0
2017-Dec-12 00:30N 40°40' W 074°00'0 0.0
2017-Dec-12 00:00N 40°40' W 074°00'0 0.0
2017-Dec-11 23:30N 40°40' W 074°00'0 0.0
2017-Dec-11 23:00N 40°40' W 074°00'0 0.0
2017-Dec-11 22:30N 40°40' W 074°00'0 0.1
2017-Dec-11 22:00N 40°40' W 074°00'0 0.1
2017-Dec-11 21:30N 40°40' W 074°00'1 2.7
2017-Dec-11 21:00N 40°39' W 074°02'3 5.7
2017-Dec-11 20:30N 40°36' W 074°02'2 4.3
2017-Dec-11 20:00N 40°34' W 074°01'0 0.8
2017-Dec-11 19:30N 40°34' W 074°02'2 3.7
2017-Dec-11 19:00N 40°32' W 074°01'2 4.1
2017-Dec-11 18:29N 40°31' W 073°59'2 4.8
2017-Dec-11 18:00N 40°30' W 073°56'2 4.4
2017-Dec-11 17:30N 40°29' W 073°54'2 4.2
2017-Dec-11 16:59N 40°26' W 073°54'3 5.6
2017-Dec-11 16:28N 40°23' W 073°54'3 5.9
2017-Dec-11 16:00N 40°21' W 073°54'29 5.7
2017-Dec-11 10:55N 39°52' W 073°58'5 5.3
2017-Dec-11 09:57N 39°47' W 073°58'2 5.6
2017-Dec-11 09:30N 39°45' W 073°59'3 5.8
2017-Dec-11 09:00N 39°42' W 074°01'3 5.8
2017-Dec-11 08:29N 39°40' W 074°03'3 5.8
2017-Dec-11 07:56N 39°37' W 074°06'3 5.9
2017-Dec-11 07:30N 39°35' W 074°07'4 6.0
2017-Dec-11 06:45N 39°31' W 074°10'14 6.0
2017-Dec-11 04:22N 39°19' W 074°20'43 4.9
2017-Dec-10 19:35N 38°52' W 075°04'1 4.8
2017-Dec-10 19:18N 38°54' W 075°05'1 4.5
2017-Dec-10 19:00N 38°55' W 075°05'2 3.8
2017-Dec-10 18:30N 38°57' W 075°06'2 4.0
2017-Dec-10 18:00N 38°58' W 075°07'2 3.7
2017-Dec-10 17:30N 38°60' W 075°08'2 3.6
2017-Dec-10 17:00N 39°02' W 075°09'2 3.7
2017-Dec-10 16:30N 39°03' W 075°10'1 2.5
2017-Dec-10 16:00N 39°04' W 075°11'0 0.8
2017-Dec-10 15:30N 39°05' W 075°11'2 4.8
2017-Dec-10 15:01N 39°07' W 075°13'2 4.9
2017-Dec-10 14:30N 39°09' W 075°14'3 5.0
2017-Dec-10 14:00N 39°11' W 075°16'2 5.1
2017-Dec-10 13:31N 39°13' W 075°18'3 6.2
2017-Dec-10 13:00N 39°16' W 075°20'3 5.8
2017-Dec-10 12:30N 39°18' W 075°23'1 1.4
2017-Dec-10 12:01N 39°18' W 075°24'0 0.8
2017-Dec-10 11:30N 39°18' W 075°23'1 1.0
2017-Dec-10 11:01N 39°17' W 075°23'0 0.4
2017-Dec-10 10:30N 39°17' W 075°23'1 2.3
2017-Dec-10 10:01N 39°18' W 075°24'1 1.9
2017-Dec-10 09:30N 39°19' W 075°24'1 1.4
2017-Dec-10 09:00N 39°20' W 075°25'0 0.7
2017-Dec-10 08:30N 39°20' W 075°25'0 0.7
2017-Dec-10 08:00N 39°20' W 075°26'1 1.4
2017-Dec-10 07:30N 39°20' W 075°25'1 1.8
2017-Dec-10 07:00N 39°19' W 075°24'1 3.0
2017-Dec-10 06:30N 39°18' W 075°23'1 2.2
2017-Dec-10 06:00N 39°17' W 075°22'1 1.1
2017-Dec-10 05:30N 39°17' W 075°23'1 1.7
2017-Dec-10 05:01N 39°18' W 075°23'1 2.1
2017-Dec-10 04:30N 39°19' W 075°24'1 1.2
2017-Dec-10 04:00N 39°19' W 075°25'0 0.9
2017-Dec-10 03:30N 39°19' W 075°24'0 0.4
2017-Dec-10 03:00N 39°19' W 075°24'0 0.1
2017-Dec-10 02:30N 39°19' W 075°24'0 0.3
2017-Dec-10 02:00N 39°19' W 075°24'0 0.6
2017-Dec-10 01:30N 39°18' W 075°24'0 0.3
2017-Dec-10 01:00N 39°18' W 075°24'0 0.5
2017-Dec-10 00:30N 39°19' W 075°24'0 0.3
2017-Dec-10 00:00N 39°19' W 075°24'1 1.5
2017-Dec-09 23:30N 39°19' W 075°25'3 5.3
2017-Dec-09 23:00N 39°21' W 075°27'3 5.7
2017-Dec-09 22:30N 39°24' W 075°29'3 5.6
2017-Dec-09 22:00N 39°26' W 075°32'2 4.8
2017-Dec-09 21:30N 39°27' W 075°34'2 4.4
2017-Dec-09 21:00N 39°30' W 075°34'2 3.9
2017-Dec-09 20:30N 39°32' W 075°33'2 4.0
2017-Dec-09 20:00N 39°33' W 075°32'1 1.4
2017-Dec-09 19:29N 39°34' W 075°31'0 0.0
2017-Dec-09 18:59N 39°34' W 075°31'0 0.0
2017-Dec-09 18:29N 39°34' W 075°31'0 0.0
2017-Dec-09 17:59N 39°34' W 075°31'0 0.0
2017-Dec-09 17:29N 39°34' W 075°31'0 0.0
2017-Dec-09 16:59N 39°34' W 075°31'0 0.0
2017-Dec-09 16:29N 39°34' W 075°31'0 0.0
2017-Dec-09 15:59N 39°34' W 075°31'0 0.0
2017-Dec-09 15:29N 39°34' W 075°31'0 0.0
2017-Dec-09 14:59N 39°34' W 075°31'0 0.0
2017-Dec-09 14:29N 39°34' W 075°31'0 0.0
2017-Dec-09 13:59N 39°34' W 075°31'0 0.0
2017-Dec-09 13:29N 39°34' W 075°31'0 0.0
2017-Dec-09 12:59N 39°34' W 075°31'0 0.0
2017-Dec-09 12:29N 39°34' W 075°31'0 0.0
2017-Dec-09 11:59N 39°34' W 075°31'0 0.0
2017-Dec-09 11:29N 39°34' W 075°31'0 0.0
2017-Dec-09 10:59N 39°34' W 075°31'0 0.0
2017-Dec-09 10:29N 39°34' W 075°31'0 0.0
2017-Dec-09 09:59N 39°34' W 075°31'0 0.6
2017-Dec-09 09:31N 39°34' W 075°31'2 3.3
2017-Dec-09 08:58N 39°35' W 075°29'0 0.0
2017-Dec-09 08:28N 39°35' W 075°29'0 0.1
2017-Dec-09 07:58N 39°35' W 075°29'0 0.0
2017-Dec-09 07:28N 39°35' W 075°29'0 0.0
2017-Dec-09 06:58N 39°35' W 075°29'0 0.0
2017-Dec-09 06:28N 39°35' W 075°29'0 0.0
2017-Dec-09 05:58N 39°35' W 075°29'0 0.0
2017-Dec-09 05:28N 39°35' W 075°29'0 0.0
2017-Dec-09 04:58N 39°35' W 075°29'0 0.0
2017-Dec-09 04:28N 39°35' W 075°29'0 0.0
2017-Dec-09 03:58N 39°35' W 075°29'0 0.0
2017-Dec-09 03:28N 39°35' W 075°29'0 0.0
2017-Dec-09 02:58N 39°35' W 075°29'0 0.0
2017-Dec-09 02:28N 39°35' W 075°29'0 0.0
2017-Dec-09 02:01N 39°35' W 075°29'0 0.0
2017-Dec-09 01:31N 39°35' W 075°29'0 0.0
2017-Dec-09 01:00N 39°35' W 075°29'0 0.0
2017-Dec-09 00:30N 39°35' W 075°29'0 0.0
2017-Dec-09 00:00N 39°35' W 075°29'0 0.0
2017-Dec-08 23:31N 39°35' W 075°29'0 0.0
2017-Dec-08 23:00N 39°35' W 075°29'0 0.0
2017-Dec-08 22:21N 39°35' W 075°29'0 0.0
2017-Dec-08 22:00N 39°35' W 075°29'0 0.8
2017-Dec-08 21:30N 39°34' W 075°29'2 4.6
2017-Dec-08 21:00N 39°33' W 075°32'3 5.8
2017-Dec-08 20:30N 39°30' W 075°33'0 0.3
2017-Dec-08 20:00N 39°31' W 075°33'1 2.6
2017-Dec-08 19:30N 39°29' W 075°34'3 5.7
2017-Dec-08 19:00N 39°27' W 075°33'5 9.4
2017-Dec-08 18:30N 39°23' W 075°29'4 8.8
2017-Dec-08 18:00N 39°20' W 075°25'2 4.6
2017-Dec-08 17:30N 39°18' W 075°23'5 9.0
2017-Dec-08 17:00N 39°15' W 075°19'4 8.0
2017-Dec-08 16:30N 39°11' W 075°16'4 7.9
2017-Dec-08 16:00N 39°08' W 075°14'4 7.5
2017-Dec-08 15:30N 39°05' W 075°11'4 7.4
2017-Dec-08 15:00N 39°02' W 075°09'4 7.6
2017-Dec-08 14:30N 38°58' W 075°07'4 7.2
2017-Dec-08 13:59N 38°55' W 075°05'6 6.5
2017-Dec-08 13:01N 38°49' W 075°02'0 6.6
2017-Dec-08 12:58N 38°49' W 075°02'60 5.2
2017-Dec-08 01:18N 39°33' W 074°09'2 5.5
2017-Dec-08 00:52N 39°35' W 074°07'3 5.5
2017-Dec-08 00:23N 39°37' W 074°06'2 5.6
2017-Dec-08 00:00N 39°39' W 074°04'5 5.7
2017-Dec-07 23:12N 39°43' W 074°01'1 5.7
2017-Dec-07 23:00N 39°44' W 074°00'3 5.4
2017-Dec-07 22:22N 39°47' W 073°58'2 5.7
2017-Dec-07 22:00N 39°49' W 073°58'4 5.7
2017-Dec-07 21:18N 39°53' W 073°57'24 5.8
2017-Dec-07 17:05N 40°17' W 073°54'2 5.8
2017-Dec-07 16:45N 40°19' W 073°54'1 5.6
2017-Dec-07 16:29N 40°21' W 073°54'3 5.7
2017-Dec-07 15:58N 40°24' W 073°54'3 5.7
2017-Dec-07 15:30N 40°26' W 073°54'3 5.0
2017-Dec-07 14:58N 40°29' W 073°54'3 6.0
2017-Dec-07 14:30N 40°30' W 073°58'3 5.5
2017-Dec-07 14:00N 40°31' W 074°01'3 5.4
2017-Dec-07 13:30N 40°34' W 074°02'3 5.3
2017-Dec-07 13:00N 40°36' W 074°03'1 1.4
2017-Dec-07 12:30N 40°37' W 074°03'3 5.2
2017-Dec-07 12:01N 40°39' W 074°06'3 5.2
2017-Dec-07 11:30N 40°39' W 074°09'2 3.1
2017-Dec-07 10:57N 40°38' W 074°12'0 0.0
2017-Dec-07 10:27N 40°38' W 074°12'0 0.0
2017-Dec-07 10:00N 40°38' W 074°12'0 0.1
2017-Dec-07 09:30N 40°38' W 074°12'0 0.0
2017-Dec-07 09:00N 40°38' W 074°12'0 0.0
2017-Dec-07 08:30N 40°38' W 074°12'0 0.0
2017-Dec-07 07:57N 40°38' W 074°12'0 0.0
2017-Dec-07 07:27N 40°38' W 074°12'0 0.0
2017-Dec-07 06:57N 40°38' W 074°12'0 0.0
2017-Dec-07 06:30N 40°38' W 074°12'0 0.0
2017-Dec-07 05:57N 40°38' W 074°12'0 0.0
2017-Dec-07 05:30N 40°38' W 074°12'0 0.0
2017-Dec-07 05:00N 40°38' W 074°12'0 0.0
2017-Dec-07 04:30N 40°38' W 074°12'0 0.0
2017-Dec-07 04:00N 40°38' W 074°12'0 0.0
2017-Dec-07 03:30N 40°38' W 074°12'0 0.0
2017-Dec-07 03:00N 40°38' W 074°12'0 0.0
2017-Dec-07 02:30N 40°38' W 074°12'0 0.0
2017-Dec-07 02:00N 40°38' W 074°12'0 0.0
2017-Dec-07 01:30N 40°38' W 074°12'0 0.0
2017-Dec-07 01:00N 40°38' W 074°12'0 0.0
2017-Dec-07 00:24N 40°38' W 074°12'0 0.0
2017-Dec-06 23:56N 40°38' W 074°12'0 0.0
2017-Dec-06 23:18N 40°38' W 074°12'0 0.0
2017-Dec-06 22:48N 40°38' W 074°12'0 0.0
2017-Dec-06 22:27N 40°38' W 074°12'0 0.0
2017-Dec-06 21:51N 40°38' W 074°12'0 0.0
2017-Dec-06 21:27N 40°38' W 074°12'0 0.0
2017-Dec-06 21:00N 40°38' W 074°12'  

Dump ship's entire track history